Terminal Aerodrome Forecast
Issued by NWS

Home | Current Version | Previous Version | Text Only | Print | Product List | Glossary On
Versions: 1 2 3 4 5 6 7 8 9 10 11 12 13 14 15 16 17 18 19 20 21 22
802
FTUS43 KDLH 162335 CCA
TAFHYR
TAF COR
KHYR 162335Z 1700/1724 14007KT P6SM BKN019
     FM170400 15011KT P6SM OVC020
     FM171500 18011KT 5SM -DZ OVC014
     FM171800 18008G16KT 5SM -RA OVC007
     FM172100 19004KT 2SM -RA OVC005=

USA.gov is the U.S. government's official web portal to all federal, state and local government web resources and services.